Mh1 Marujo — CSHC3 — position and weather

sailwx.info

Track history (hours):
 
Tides and Currents Weather Stations Pressure Air Temp Water Temp Dewpoint Dewpoint Depression Visibility Wind Speed Wind Dir Waves Ship Positions

Mh1 Marujo

Last reported at 2018-Apr-25 06:22 UTC. Time now 2018-Apr-25 06:56 UTC.
Position N 38°42' W 009°11'.

Type: Passenger vessel. MMSI: 263673939.

Date/timePositionNaut miles runAvg speedWind from/ knotsBaromVisibWave heightAir tempDewpointWater temp
2018-Apr-25 06:22N 38°42' W 009°11'0 0.0
2018-Apr-25 05:58N 38°42' W 009°11'0 0.0
2018-Apr-25 05:25N 38°42' W 009°11'0 0.0
2018-Apr-25 04:58N 38°42' W 009°11'0 0.0
2018-Apr-25 04:22N 38°42' W 009°11'0 0.0
2018-Apr-25 03:54N 38°42' W 009°11'0 0.0
2018-Apr-25 03:30N 38°42' W 009°11'0 0.0
2018-Apr-25 03:00N 38°42' W 009°11'0 0.0
2018-Apr-25 00:54N 38°42' W 009°11'0 0.0
2018-Apr-25 00:18N 38°42' W 009°11'0 0.0
2018-Apr-25 00:00N 38°42' W 009°11'0 0.0
2018-Apr-24 23:30N 38°42' W 009°11'0 0.0
2018-Apr-24 22:42N 38°42' W 009°11'0 0.0
2018-Apr-24 22:30N 38°42' W 009°11'0 0.0
2018-Apr-24 21:48N 38°42' W 009°11'0 0.0
2018-Apr-24 21:21N 38°42' W 009°11'0 0.0
2018-Apr-24 20:53N 38°42' W 009°11'0 0.0
2018-Apr-24 20:29N 38°42' W 009°11'0 0.0
2018-Apr-24 19:56N 38°42' W 009°11'0 0.0
2018-Apr-24 19:25N 38°42' W 009°11'0 0.0
2018-Apr-24 18:58N 38°42' W 009°11'0 0.0
2018-Apr-24 18:06N 38°42' W 009°11'0 3.9
2018-Apr-24 18:00N 38°42' W 009°11'1 1.2
2018-Apr-24 17:30N 38°42' W 009°12'2 3.7
2018-Apr-24 16:51N 38°42' W 009°09'1 2.5
2018-Apr-24 16:27N 38°42' W 009°10'2 4.1
2018-Apr-24 15:54N 38°42' W 009°13'1 2.6
2018-Apr-24 15:30N 38°42' W 009°12'2 4.1
2018-Apr-24 14:58N 38°42' W 009°09'2 3.1
2018-Apr-24 14:28N 38°42' W 009°11'2 2.8
2018-Apr-24 13:52N 38°42' W 009°13'1 2.2
2018-Apr-24 13:26N 38°42' W 009°12'2 4.6
2018-Apr-24 12:57N 38°42' W 009°09'1 2.7
2018-Apr-24 12:29N 38°42' W 009°10'2 4.1
2018-Apr-24 11:59N 38°42' W 009°13'1 1.8
2018-Apr-24 11:29N 38°42' W 009°12'2 4.7
2018-Apr-24 10:58N 38°42' W 009°09'1 1.2
2018-Apr-24 10:29N 38°42' W 009°09'3 5.1
2018-Apr-24 09:57N 38°42' W 009°13'2 3.6
2018-Apr-24 09:28N 38°42' W 009°11'0 0.1
2018-Apr-24 08:35N 38°42' W 009°11'0 0.0
2018-Apr-24 07:47N 38°42' W 009°11'0 0.0
2018-Apr-24 07:23N 38°42' W 009°11'0 0.0
2018-Apr-24 06:50N 38°42' W 009°11'0 0.0
2018-Apr-24 05:57N 38°42' W 009°11'0 0.0
2018-Apr-24 04:51N 38°42' W 009°11'0 0.0
2018-Apr-24 04:30N 38°42' W 009°11'0 0.0
2018-Apr-24 04:00N 38°42' W 009°11'0 0.0
2018-Apr-24 03:24N 38°42' W 009°11'0 0.0
2018-Apr-24 02:54N 38°42' W 009°11'0 0.0
2018-Apr-24 02:21N 38°42' W 009°11'0 0.0
2018-Apr-24 02:00N 38°42' W 009°11'0 0.0
2018-Apr-24 01:28N 38°42' W 009°11'0 0.0
2018-Apr-24 00:54N 38°42' W 009°11'0 0.0
2018-Apr-24 00:30N 38°42' W 009°11'0 0.0
2018-Apr-23 23:48N 38°42' W 009°11'0 0.0
2018-Apr-23 23:18N 38°42' W 009°11'0 0.0
2018-Apr-23 22:53N 38°42' W 009°11'0 0.0
2018-Apr-23 22:26N 38°42' W 009°11'0 0.0
2018-Apr-23 21:59N 38°42' W 009°11'0 0.0
2018-Apr-23 21:29N 38°42' W 009°11'0 0.0
2018-Apr-23 20:50N 38°42' W 009°11'0 0.0
2018-Apr-23 20:25N 38°42' W 009°11'0 0.0
2018-Apr-23 19:53N 38°42' W 009°11'0 0.0
2018-Apr-23 19:17N 38°42' W 009°11'0 0.0
2018-Apr-23 18:53N 38°42' W 009°11'0 0.0
2018-Apr-23 18:26N 38°42' W 009°11'0 0.0
2018-Apr-23 17:56N 38°42' W 009°11'0 0.0
2018-Apr-23 17:29N 38°42' W 009°11'2 1.9
2018-Apr-23 16:41N 38°42' W 009°09'1 7.1
2018-Apr-23 16:29N 38°42' W 009°10'2 2.6
2018-Apr-23 15:48N 38°42' W 009°13'1 3.3
2018-Apr-23 15:28N 38°42' W 009°11'2 3.5
2018-Apr-23 14:50N 38°42' W 009°09'1 3.4
2018-Apr-23 14:30N 38°42' W 009°10'2 4.1
2018-Apr-23 13:59N 38°42' W 009°13'1 1.6
2018-Apr-23 13:30N 38°42' W 009°12'2 4.0
2018-Apr-23 12:53N 38°42' W 009°09'2 3.3
2018-Apr-23 12:22N 38°42' W 009°11'2 3.6
2018-Apr-23 11:56N 38°42' W 009°13'2 3.3
2018-Apr-23 11:23N 38°42' W 009°11'2 2.8
2018-Apr-23 10:50N 38°42' W 009°09'1 3.8
2018-Apr-23 10:29N 38°42' W 009°10'2 4.0
2018-Apr-23 09:58N 38°42' W 009°13'0 0.0
2018-Apr-23 09:30N 38°42' W 009°13'0 0.0
2018-Apr-23 09:00N 38°42' W 009°13'1 2.2
2018-Apr-23 08:29N 38°42' W 009°11'1 1.3
2018-Apr-23 08:00N 38°42' W 009°11'0 0.0
2018-Apr-23 07:27N 38°42' W 009°11'0 0.0
2018-Apr-23 06:51N 38°42' W 009°11'0 0.0
2018-Apr-23 06:27N 38°42' W 009°11'0 0.0
2018-Apr-23 05:45N 38°42' W 009°11'0 0.0
2018-Apr-23 05:27N 38°42' W 009°11'0 0.0
2018-Apr-23 04:51N 38°42' W 009°11'0 0.0
2018-Apr-23 04:21N 38°42' W 009°11'0 0.0
2018-Apr-23 03:59N 38°42' W 009°11'0 0.0
2018-Apr-23 03:26N 38°42' W 009°11'0 0.0
2018-Apr-23 02:56N 38°42' W 009°11'0 0.0
2018-Apr-23 02:20N 38°42' W 009°11'0 0.0
2018-Apr-23 01:44N 38°42' W 009°11'0 0.0
2018-Apr-23 01:26N 38°42' W 009°11'0 0.0
2018-Apr-23 00:53N 38°42' W 009°11'0 0.0
2018-Apr-23 00:20N 38°42' W 009°11'0 0.0
2018-Apr-22 23:56N 38°42' W 009°11'0 0.0
2018-Apr-22 23:26N 38°42' W 009°11'0 0.0
2018-Apr-22 22:56N 38°42' W 009°11'0 0.0
2018-Apr-22 22:26N 38°42' W 009°11'0 0.0
2018-Apr-22 21:56N 38°42' W 009°11'0 0.0
2018-Apr-22 21:26N 38°42' W 009°11'0 0.0
2018-Apr-22 20:49N 38°42' W 009°11'0 0.0
2018-Apr-22 20:28N 38°42' W 009°11'0 0.0
2018-Apr-22 19:46N 38°42' W 009°11'0 0.0
2018-Apr-22 19:28N 38°42' W 009°11'0 0.0
2018-Apr-22 18:55N 38°42' W 009°11'0 0.0
2018-Apr-22 18:27N 38°42' W 009°11'0 0.0
2018-Apr-22 17:59N 38°42' W 009°11'2 3.2
2018-Apr-22 17:30N 38°42' W 009°09'3 6.0
2018-Apr-22 16:57N 38°42' W 009°13'2 3.5
2018-Apr-22 16:31N 38°42' W 009°11'2 3.1
2018-Apr-22 15:57N 38°42' W 009°09'1 2.8
2018-Apr-22 15:29N 38°42' W 009°10'2 3.4
2018-Apr-22 14:55N 38°42' W 009°13'1 3.0
2018-Apr-22 14:30N 38°42' W 009°11'2 3.9
2018-Apr-22 14:00N 38°42' W 009°09'2 3.2
2018-Apr-22 13:29N 38°42' W 009°11'2 3.2
2018-Apr-22 13:00N 38°42' W 009°13'2 3.1
2018-Apr-22 12:25N 38°42' W 009°11'2 2.9
2018-Apr-22 11:53N 38°42' W 009°09'1 3.8
2018-Apr-22 11:30N 38°42' W 009°11'2 2.7
2018-Apr-22 10:48N 38°42' W 009°13'1 1.6
2018-Apr-22 10:22N 38°42' W 009°12'3 4.8
2018-Apr-22 09:50N 38°42' W 009°09'1 4.0
2018-Apr-22 09:30N 38°42' W 009°10'0 0.3
2018-Apr-22 08:56N 38°42' W 009°11'0 0.0
2018-Apr-22 08:26N 38°42' W 009°11'0 0.0
2018-Apr-22 07:53N 38°42' W 009°11'0 0.0
2018-Apr-22 07:14N 38°42' W 009°11'0 0.0
2018-Apr-22 06:59N 38°42' W 009°11'0 0.0
2018-Apr-22 06:29N 38°42' W 009°11'0 0.0
2018-Apr-22 05:53N 38°42' W 009°11'0 0.0
2018-Apr-22 05:20N 38°42' W 009°11'0 0.0
2018-Apr-22 04:59N 38°42' W 009°11'0 0.0
2018-Apr-22 04:14N 38°42' W 009°11'0 0.0
2018-Apr-22 03:56N 38°42' W 009°11'0 0.0
2018-Apr-22 03:20N 38°42' W 009°11'0 0.0
2018-Apr-22 02:50N 38°42' W 009°11'0 0.0
2018-Apr-22 02:29N 38°42' W 009°11'0 0.0
2018-Apr-22 01:59N 38°42' W 009°11'0 0.0
2018-Apr-22 01:23N 38°42' W 009°11'0 0.0
2018-Apr-22 00:56N 38°42' W 009°11'0 0.0
2018-Apr-22 00:23N 38°42' W 009°11'0 0.0
2018-Apr-21 23:59N 38°42' W 009°11'0 0.0
2018-Apr-21 23:28N 38°42' W 009°11'0 0.0
2018-Apr-21 22:46N 38°42' W 009°11'0 0.0
2018-Apr-21 22:28N 38°42' W 009°11'0 0.0
2018-Apr-21 21:58N 38°42' W 009°11'0 0.0
2018-Apr-21 21:22N 38°42' W 009°11'0 0.0
2018-Apr-21 20:58N 38°42' W 009°11'0 0.0
2018-Apr-21 20:28N 38°42' W 009°11'0 0.0
2018-Apr-21 19:58N 38°42' W 009°11'0 0.0
2018-Apr-21 19:25N 38°42' W 009°11'0 0.0
2018-Apr-21 18:59N 38°42' W 009°11'0 0.0
2018-Apr-21 18:23N 38°42' W 009°11'0 0.0
2018-Apr-21 17:59N 38°42' W 009°11'0 0.0
2018-Apr-21 17:23N 38°42' W 009°11'1 2.9
2018-Apr-21 16:53N 38°42' W 009°09'0 0.9
2018-Apr-21 16:30N 38°42' W 009°09'3 5.6
2018-Apr-21 15:59N 38°42' W 009°13'2 3.2
2018-Apr-21 15:26N 38°42' W 009°11'0 0.0
2018-Apr-21 14:46N 38°42' W 009°11'0 0.0
2018-Apr-21 14:28N 38°42' W 009°11'0 0.0
2018-Apr-21 13:55N 38°42' W 009°11'0 0.0
2018-Apr-21 13:28N 38°42' W 009°11'0 0.0
2018-Apr-21 12:55N 38°42' W 009°11'0 0.0
2018-Apr-21 12:28N 38°42' W 009°11'0 0.0
2018-Apr-21 11:55N 38°42' W 009°11'0 0.0
2018-Apr-21 11:16N 38°42' W 009°11'0 0.0
2018-Apr-21 10:40N 38°42' W 009°11'0 0.0
2018-Apr-21 10:16N 38°42' W 009°11'0 0.0
2018-Apr-21 09:58N 38°42' W 009°11'0 0.0
2018-Apr-21 09:28N 38°42' W 009°11'0 0.0
2018-Apr-21 08:58N 38°42' W 009°11'0 0.0
2018-Apr-21 08:01N 38°42' W 009°11'0 0.0
2018-Apr-21 07:55N 38°42' W 009°11'0 0.0
2018-Apr-21 07:07N 38°42' W 009°11'0 0.0
2018-Apr-21 06:58N 38°42' W 009°11'0 0.0
2018-Apr-21 06:16N 38°42' W 009°11'0 0.0
2018-Apr-21 05:55N 38°42' W 009°11'0 0.0
2018-Apr-21 05:16N 38°42' W 009°11'0 0.0
2018-Apr-21 04:58N 38°42' W 009°11'0 0.0
2018-Apr-21 04:07N 38°42' W 009°11'0 0.0
2018-Apr-21 03:37N 38°42' W 009°11'0 0.0
2018-Apr-21 03:07N 38°42' W 009°11'0 0.0
2018-Apr-21 02:43N 38°42' W 009°11'0 0.0
2018-Apr-21 02:25N 38°42' W 009°11'0 0.0
2018-Apr-21 01:58N 38°42' W 009°11'0 0.0
2018-Apr-21 01:19N 38°42' W 009°11'0 0.0
2018-Apr-21 00:55N 38°42' W 009°11'0 0.0
2018-Apr-21 00:25N 38°42' W 009°11'0 0.0
2018-Apr-20 23:58N 38°42' W 009°11'0 0.0
2018-Apr-20 23:28N 38°42' W 009°11'0 0.0
2018-Apr-20 22:55N 38°42' W 009°11'0 0.0
2018-Apr-20 22:28N 38°42' W 009°11'0 0.0
2018-Apr-20 21:43N 38°42' W 009°11'0 0.0
2018-Apr-20 21:25N 38°42' W 009°11'0 0.0
2018-Apr-20 20:25N 38°42' W 009°11'0 0.0
2018-Apr-20 19:59N 38°42' W 009°11'0 0.0
2018-Apr-20 19:29N 38°42' W 009°11'0 0.0
2018-Apr-20 18:59N 38°42' W 009°11'0 0.0
2018-Apr-20 18:14N 38°42' W 009°11'0 0.0
2018-Apr-20 17:47N 38°42' W 009°11'0 0.0
2018-Apr-20 17:29N 38°42' W 009°11'2 3.2
2018-Apr-20 16:57N 38°42' W 009°13'1 2.3
2018-Apr-20 16:28N 38°42' W 009°11'2 4.3
2018-Apr-20 16:00N 38°42' W 009°09'1 1.3
2018-Apr-20 15:27N 38°42' W 009°10'3 5.1
2018-Apr-20 14:56N 38°42' W 009°13'0 1.0
2018-Apr-20 14:28N 38°42' W 009°12'3 3.4
2018-Apr-20 13:35N 38°42' W 009°08'1 6.9
2018-Apr-20 13:25N 38°42' W 009°10'2 4.4
2018-Apr-20 12:54N 38°41' W 009°13'1 2.6
2018-Apr-20 12:25N 38°42' W 009°11'2 3.5
2018-Apr-20 11:51N 38°42' W 009°09'1 2.3
2018-Apr-20 11:29N 38°42' W 009°10'2 3.7
2018-Apr-20 10:50N 38°42' W 009°13'1 2.9
2018-Apr-20 10:30N 38°42' W 009°12'2 4.0
2018-Apr-20 09:58N 38°42' W 009°09'1 2.5
2018-Apr-20 09:27N 38°42' W 009°11'0 0.0
2018-Apr-20 08:24N 38°42' W 009°11'0 0.0
2018-Apr-20 07:55N 38°42' W 009°11'0 0.0
2018-Apr-20 07:27N 38°42' W 009°11'0 0.0
2018-Apr-20 07:00N 38°42' W 009°11'0 0.0
2018-Apr-20 06:18N 38°42' W 009°11'0 0.0
2018-Apr-20 05:51N 38°42' W 009°11'0 0.0
2018-Apr-20 05:18N 38°42' W 009°11'0 0.0
2018-Apr-20 04:57N 38°42' W 009°11'0 0.0
2018-Apr-20 04:27N 38°42' W 009°11'0 0.0
2018-Apr-20 03:57N 38°42' W 009°11'0 0.0
2018-Apr-20 03:21N 38°42' W 009°11'0 0.0
2018-Apr-20 03:00N 38°42' W 009°11'0 0.0
2018-Apr-20 02:30N 38°42' W 009°11'0 0.0
2018-Apr-20 02:00N 38°42' W 009°11'0 0.0
2018-Apr-20 01:27N 38°42' W 009°11'0 0.0
2018-Apr-20 00:57N 38°42' W 009°11'0 0.0
2018-Apr-20 00:30N 38°42' W 009°11'0 0.0
2018-Apr-19 23:57N 38°42' W 009°11'0 0.0
2018-Apr-19 23:27N 38°42' W 009°11'0 0.0
2018-Apr-19 23:00N 38°42' W 009°11'0 0.0
2018-Apr-19 22:30N 38°42' W 009°11'0 0.0
2018-Apr-19 21:39N 38°42' W 009°11'0 0.0
2018-Apr-19 20:50N 38°42' W 009°11'0 0.0
2018-Apr-19 20:23N 38°42' W 009°11'0 0.0
2018-Apr-19 19:43N 38°42' W 009°11'0 0.0
2018-Apr-19 19:22N 38°42' W 009°11'0 0.0
2018-Apr-19 18:37N 38°42' W 009°11'0 0.0
2018-Apr-19 18:16N 38°42' W 009°11'0 0.0
2018-Apr-19 17:55N 38°42' W 009°11'0 0.1
2018-Apr-19 17:13N 38°42' W 009°11'1 3.1
2018-Apr-19 16:46N 38°42' W 009°09'0 1.3
2018-Apr-19 16:28N 38°42' W 009°09'3 5.0
2018-Apr-19 15:53N 38°42' W 009°13'1 2.1
2018-Apr-19 15:30N 38°42' W 009°12'2 3.5
2018-Apr-19 14:49N 38°42' W 009°09'1 3.7
2018-Apr-19 14:30N 38°42' W 009°10'2 4.4
2018-Apr-19 14:00N 38°42' W 009°13'1 1.3
2018-Apr-19 13:27N 38°42' W 009°12'2 5.3
2018-Apr-19 12:59N 38°42' W 009°09'1 2.3
2018-Apr-19 12:24N 38°42' W 009°10'2 2.9
2018-Apr-19 11:47N 38°42' W 009°13'1 3.3
2018-Apr-19 11:28N 38°42' W 009°11'2 4.3
2018-Apr-19 11:00N 38°42' W 009°09'1 2.4
2018-Apr-19 10:30N 38°42' W 009°10'2 3.8
2018-Apr-19 09:58N 38°42' W 009°13'0 0.2
2018-Apr-19 09:26N 38°41' W 009°13'1 2.8
2018-Apr-19 09:00N 38°41' W 009°12'1 1.8
2018-Apr-19 08:29N 38°41' W 009°11'1 0.6
2018-Apr-19 07:38N 38°42' W 009°11'0 0.0
2018-Apr-19 07:26N 38°42' W 009°11'0 0.0
2018-Apr-19 06:56N 38°42' W 009°11'0 0.0
2018-Apr-19 06:23N 38°42' W 009°11'0 0.0
2018-Apr-19 05:53N 38°42' W 009°11'0 0.0
2018-Apr-19 05:23N 38°42' W 009°11'0 0.0
2018-Apr-19 04:59N 38°42' W 009°11'0 0.0
2018-Apr-19 04:29N 38°42' W 009°11'0 0.0
2018-Apr-19 03:53N 38°42' W 009°11'0 0.0
2018-Apr-19 03:05N 38°42' W 009°11'0 0.0
2018-Apr-19 02:56N 38°42' W 009°11'0 0.0
2018-Apr-19 02:29N 38°42' W 009°11'0 0.0
2018-Apr-19 01:59N 38°42' W 009°11'0 0.0
2018-Apr-19 01:26N 38°42' W 009°11'0 0.0
2018-Apr-19 00:59N 38°42' W 009°11'0 0.0
2018-Apr-19 00:25N 38°42' W 009°11'0 0.0
2018-Apr-18 23:58N 38°42' W 009°11'0 0.0
2018-Apr-18 23:28N 38°42' W 009°11'0 0.0
2018-Apr-18 21:55N 38°42' W 009°11'0 0.0
2018-Apr-18 21:10N 38°42' W 009°11'0 0.0
2018-Apr-18 20:43N 38°42' W 009°11'0 0.0
2018-Apr-18 20:28N 38°42' W 009°11'0 0.0
2018-Apr-18 19:49N 38°42' W 009°11'0 0.0
2018-Apr-18 19:28N 38°42' W 009°11'0 0.0
2018-Apr-18 18:58N 38°42' W 009°11'0 0.0
2018-Apr-18 18:28N 38°42' W 009°11'2 2.4
2018-Apr-18 17:42N 38°42' W 009°08'1 5.7
2018-Apr-18 17:27N 38°42' W 009°10'2 4.8
2018-Apr-18 16:59N 38°42' W 009°13'2 3.7
2018-Apr-18 16:27N 38°42' W 009°10'1 2.0
2018-Apr-18 15:50N 38°42' W 009°09'1 1.9
2018-Apr-18 15:30N 38°42' W 009°10'2 3.4
2018-Apr-18 14:49N 38°42' W 009°13'1 3.6
2018-Apr-18 14:24N 38°42' W 009°11'2 2.9
2018-Apr-18 13:52N 38°42' W 009°09'0 0.6
2018-Apr-18 13:30N 38°42' W 009°09'3 5.2
2018-Apr-18 12:55N 38°42' W 009°13'1 1.9
2018-Apr-18 12:28N 38°42' W 009°12'2 4.3
2018-Apr-18 11:55N 38°42' W 009°09'1 3.2
2018-Apr-18 11:28N 38°42' W 009°11'2 3.6
2018-Apr-18 10:59N 38°42' W 009°13'2 3.7
2018-Apr-18 10:30N 38°42' W 009°11'0 0.0
2018-Apr-18 10:00N 38°42' W 009°11'0 0.0
2018-Apr-18 09:27N 38°42' W 009°11'0 0.0
2018-Apr-18 08:57N 38°42' W 009°11'0 0.0
2018-Apr-18 08:30N 38°42' W 009°11'0 0.0
2018-Apr-18 07:51N 38°42' W 009°11'0 0.0
2018-Apr-18 07:21N 38°42' W 009°11'0 0.0
2018-Apr-18 07:00N 38°42' W 009°11'0 0.0
2018-Apr-18 06:27N 38°42' W 009°11'0 0.0
2018-Apr-18 05:57N 38°42' W 009°11'0 0.0
2018-Apr-18 05:30N 38°42' W 009°11'0 0.0
2018-Apr-18 04:45N 38°42' W 009°11'0 0.0
2018-Apr-18 04:27N 38°42' W 009°11'0 0.0
2018-Apr-18 03:57N 38°42' W 009°11'0 0.0
2018-Apr-18 03:10N 38°42' W 009°11'0 0.0
2018-Apr-18 02:58N 38°42' W 009°11'0 0.0
2018-Apr-18 02:23N 38°42' W 009°11'0 0.0
2018-Apr-18 02:00N 38°42' W 009°11'0 0.0
2018-Apr-18 01:23N 38°42' W 009°11'0 0.0
2018-Apr-18 00:56N 38°42' W 009°11'0 0.0
2018-Apr-18 00:23N 38°42' W 009°11'0 0.0
2018-Apr-17 23:56N 38°42' W 009°11'0 0.0
2018-Apr-17 23:29N 38°42' W 009°11'0 0.0
2018-Apr-17 22:53N 38°42' W 009°11'0 0.0
2018-Apr-17 21:44N 38°42' W 009°11'0 0.0
2018-Apr-17 21:29N 38°42' W 009°11'0 0.0
2018-Apr-17 20:59N 38°42' W 009°11'0 0.0
2018-Apr-17 20:26N 38°42' W 009°11'0 0.0
2018-Apr-17 19:59N 38°42' W 009°11'0 0.0
2018-Apr-17 19:02N 38°42' W 009°11'0 0.0
2018-Apr-17 18:53N 38°42' W 009°11'0 0.0
2018-Apr-17 17:58N 38°42' W 009°11'2 3.9
2018-Apr-17 17:29N 38°41' W 009°13'3 6.2
2018-Apr-17 16:57N 38°42' W 009°09'1 1.3
2018-Apr-17 16:29N 38°42' W 009°10'3 5.1
2018-Apr-17 15:58N 38°42' W 009°13'1 2.0
2018-Apr-17 15:28N 38°42' W 009°12'2 3.7
2018-Apr-17 14:52N 38°42' W 009°09'1 2.7
2018-Apr-17 14:24N 38°42' W 009°10'2 4.2
2018-Apr-17 13:55N 38°42' W 009°13'1 1.9
2018-Apr-17 13:30N 38°42' W 009°12'2 4.6
2018-Apr-17 12:58N 38°42' W 009°09'0 1.0
2018-Apr-17 12:30N 38°42' W 009°09'3 5.0
2018-Apr-17 11:56N 38°42' W 009°13'1 1.9
2018-Apr-17 11:29N 38°42' W 009°12'2 4.4
2018-Apr-17 10:57N 38°42' W 009°09'2 3.6
2018-Apr-17 10:29N 38°42' W 009°11'2 3.3
2018-Apr-17 10:00N 38°42' W 009°13'2 3.3
2018-Apr-17 09:28N 38°42' W 009°11'0 0.5
2018-Apr-17 08:58N 38°42' W 009°10'0 0.8
2018-Apr-17 08:22N 38°42' W 009°10'1 1.8
2018-Apr-17 07:59N 38°42' W 009°11'0 0.1
2018-Apr-17 07:17N 38°42' W 009°11'0 0.0
2018-Apr-17 06:56N 38°42' W 009°11'0 0.0
2018-Apr-17 05:32N 38°42' W 009°11'0 0.0
2018-Apr-17 05:26N 38°42' W 009°11'0 0.0
2018-Apr-17 02:56N 38°42' W 009°11'0 0.0
2018-Apr-17 02:20N 38°42' W 009°11'0 0.0
2018-Apr-17 01:50N 38°42' W 009°11'0 0.0
2018-Apr-17 01:20N 38°42' W 009°11'0 0.0
2018-Apr-17 00:56N 38°42' W 009°11'0 0.0
2018-Apr-17 00:26N 38°42' W 009°11'0 0.0
2018-Apr-16 23:32N 38°42' W 009°11'0 0.0
2018-Apr-16 23:26N 38°42' W 009°11'0 0.0
2018-Apr-16 22:56N 38°42' W 009°11'0 0.0
2018-Apr-16 22:26N 38°42' W 009°11'0 0.0
2018-Apr-16 21:53N 38°42' W 009°11'0 0.0
2018-Apr-16 21:14N 38°42' W 009°11'0 0.0
2018-Apr-16 20:59N 38°42' W 009°11'0 0.0
2018-Apr-16 20:26N 38°42' W 009°11'0 0.0
2018-Apr-16 19:53N 38°42' W 009°11'0 0.0
2018-Apr-16 19:29N 38°42' W 009°11'0 0.0
2018-Apr-16 18:59N 38°42' W 009°11'0 0.0
2018-Apr-16 18:12N 38°42' W 009°11'2 5.2
2018-Apr-16 17:49N 38°42' W 009°08'2 5.2
2018-Apr-16 17:21N 38°42' W 009°11'0 0.5
2018-Apr-16 16:26N 38°42' W 009°12'0 0.4
2018-Apr-16 15:16N 38°42' W 009°11'1 4.5
2018-Apr-16 14:58N 38°42' W 009°13'1 1.7
2018-Apr-16 14:30N 38°42' W 009°12'2 4.2
2018-Apr-16 13:56N 38°42' W 009°09'0 0.5
2018-Apr-16 13:28N 38°42' W 009°09'3 7.1
2018-Apr-16 12:59N 38°41' W 009°13'1 1.8
2018-Apr-16 12:29N 38°42' W 009°12'2 4.0
2018-Apr-16 11:54N 38°42' W 009°09'1 3.1
2018-Apr-16 11:27N 38°42' W 009°11'2 3.0
2018-Apr-16 10:50N 38°42' W 009°13'1 1.6
2018-Apr-16 10:29N 38°42' W 009°12'3 4.4
2018-Apr-16 09:53N 38°42' W 009°09'2 4.8
2018-Apr-16 09:30N 38°42' W 009°11'1 2.0
2018-Apr-16 08:47N 38°41' W 009°13'2 5.0
2018-Apr-16 08:26N 38°42' W 009°11'0 0.0
2018-Apr-16 07:56N 38°42' W 009°11'0 0.0
2018-Apr-16 07:29N 38°42' W 009°11'0 0.0
2018-Apr-16 06:53N 38°42' W 009°11'0 0.0
2018-Apr-16 05:10N 38°42' W 009°11'0 0.0
2018-Apr-16 04:52N 38°42' W 009°11'0 0.0
2018-Apr-16 03:49N 38°42' W 009°11'0 0.0
2018-Apr-16 03:28N 38°42' W 009°11'0 0.0
2018-Apr-16 02:43N 38°42' W 009°11'0 0.0
2018-Apr-16 01:52N 38°42' W 009°11'0 0.0
2018-Apr-16 01:28N 38°42' W 009°11'0 0.0
2018-Apr-16 00:58N 38°42' W 009°11'0 0.0
2018-Apr-16 00:28N 38°42' W 009°11'0 0.0
2018-Apr-15 22:13N 38°42' W 009°11'0 0.0
2018-Apr-15 21:43N 38°42' W 009°11'0 0.0
2018-Apr-15 20:38N 38°42' W 009°11'0 0.0
2018-Apr-15 20:17N 38°42' W 009°11'0 0.0
2018-Apr-15 19:59N 38°42' W 009°11'0 0.0
2018-Apr-15 19:29N 38°42' W 009°11'0 0.0
2018-Apr-15 18:56N 38°42' W 009°11'0 0.0
2018-Apr-15 18:26N 38°42' W 009°11'0 0.0
2018-Apr-15 17:56N 38°42' W 009°11'0 0.0
2018-Apr-15 17:17N 38°42' W 009°11'0 1.5
2018-Apr-15 17:00N 38°42' W 009°10'1 1.3
2018-Apr-15 16:28N 38°42' W 009°11'1 2.9
2018-Apr-15 15:59N 38°42' W 009°13'1 2.4
2018-Apr-15 15:31N 38°42' W 009°11'1 1.3
2018-Apr-15 14:29N 38°42' W 009°10'2 3.4
2018-Apr-15 13:45N 38°42' W 009°13'1 3.6
2018-Apr-15 13:30N 38°42' W 009°12'2 4.3
2018-Apr-15 12:58N 38°42' W 009°09'0 0.7
2018-Apr-15 12:28N 38°42' W 009°08'4 6.5
2018-Apr-15 11:54N 38°42' W 009°13'0 0.0
2018-Apr-15 11:30N 38°42' W 009°13'0 0.0
2018-Apr-15 11:00N 38°42' W 009°13'0 0.0
2018-Apr-15 10:30N 38°42' W 009°13'0 0.0
2018-Apr-15 10:00N 38°42' W 009°13'2 3.5
2018-Apr-15 09:30N 38°42' W 009°11'0 0.0
2018-Apr-15 08:57N 38°42' W 009°11'0 0.0
2018-Apr-15 08:18N 38°42' W 009°11'0 0.0
2018-Apr-15 07:59N 38°42' W 009°11'0 0.0
2018-Apr-15 07:29N 38°42' W 009°11'0 0.0
2018-Apr-15 06:53N 38°42' W 009°11'  
Track history (hours):
 
Tides and Currents Weather Stations Pressure Air Temp Water Temp Dewpoint Dewpoint Depression Visibility Wind Speed Wind Dir Waves Ship Positions

Mh1 Marujo

Last reported at 2018-Apr-25 06:22 UTC. Time now 2018-Apr-25 06:56 UTC.
Position N 38°42' W 009°11'.

Type: Passenger vessel. MMSI: 263673939.

Date/timePositionNaut miles runAvg speedWind from/ knotsBaromVisibWave heightAir tempDewpointWater temp
2018-Apr-25 06:22N 38°42' W 009°11'0 0.0
2018-Apr-25 05:58N 38°42' W 009°11'0 0.0
2018-Apr-25 05:25N 38°42' W 009°11'0 0.0
2018-Apr-25 04:58N 38°42' W 009°11'0 0.0
2018-Apr-25 04:22N 38°42' W 009°11'0 0.0
2018-Apr-25 03:54N 38°42' W 009°11'0 0.0
2018-Apr-25 03:30N 38°42' W 009°11'0 0.0
2018-Apr-25 03:00N 38°42' W 009°11'0 0.0
2018-Apr-25 00:54N 38°42' W 009°11'0 0.0
2018-Apr-25 00:18N 38°42' W 009°11'0 0.0
2018-Apr-25 00:00N 38°42' W 009°11'0 0.0
2018-Apr-24 23:30N 38°42' W 009°11'0 0.0
2018-Apr-24 22:42N 38°42' W 009°11'0 0.0
2018-Apr-24 22:30N 38°42' W 009°11'0 0.0
2018-Apr-24 21:48N 38°42' W 009°11'0 0.0
2018-Apr-24 21:21N 38°42' W 009°11'0 0.0
2018-Apr-24 20:53N 38°42' W 009°11'0 0.0
2018-Apr-24 20:29N 38°42' W 009°11'0 0.0
2018-Apr-24 19:56N 38°42' W 009°11'0 0.0
2018-Apr-24 19:25N 38°42' W 009°11'0 0.0
2018-Apr-24 18:58N 38°42' W 009°11'0 0.0
2018-Apr-24 18:06N 38°42' W 009°11'0 3.9
2018-Apr-24 18:00N 38°42' W 009°11'1 1.2
2018-Apr-24 17:30N 38°42' W 009°12'2 3.7
2018-Apr-24 16:51N 38°42' W 009°09'1 2.5
2018-Apr-24 16:27N 38°42' W 009°10'2 4.1
2018-Apr-24 15:54N 38°42' W 009°13'1 2.6
2018-Apr-24 15:30N 38°42' W 009°12'2 4.1
2018-Apr-24 14:58N 38°42' W 009°09'2 3.1
2018-Apr-24 14:28N 38°42' W 009°11'2 2.8
2018-Apr-24 13:52N 38°42' W 009°13'1 2.2
2018-Apr-24 13:26N 38°42' W 009°12'2 4.6
2018-Apr-24 12:57N 38°42' W 009°09'1 2.7
2018-Apr-24 12:29N 38°42' W 009°10'2 4.1
2018-Apr-24 11:59N 38°42' W 009°13'1 1.8
2018-Apr-24 11:29N 38°42' W 009°12'2 4.7
2018-Apr-24 10:58N 38°42' W 009°09'1 1.2
2018-Apr-24 10:29N 38°42' W 009°09'3 5.1
2018-Apr-24 09:57N 38°42' W 009°13'2 3.6
2018-Apr-24 09:28N 38°42' W 009°11'0 0.1
2018-Apr-24 08:35N 38°42' W 009°11'0 0.0
2018-Apr-24 07:47N 38°42' W 009°11'0 0.0
2018-Apr-24 07:23N 38°42' W 009°11'0 0.0
2018-Apr-24 06:50N 38°42' W 009°11'0 0.0
2018-Apr-24 05:57N 38°42' W 009°11'0 0.0
2018-Apr-24 04:51N 38°42' W 009°11'0 0.0
2018-Apr-24 04:30N 38°42' W 009°11'0 0.0
2018-Apr-24 04:00N 38°42' W 009°11'0 0.0
2018-Apr-24 03:24N 38°42' W 009°11'0 0.0
2018-Apr-24 02:54N 38°42' W 009°11'0 0.0
2018-Apr-24 02:21N 38°42' W 009°11'0 0.0
2018-Apr-24 02:00N 38°42' W 009°11'0 0.0
2018-Apr-24 01:28N 38°42' W 009°11'0 0.0
2018-Apr-24 00:54N 38°42' W 009°11'0 0.0
2018-Apr-24 00:30N 38°42' W 009°11'0 0.0
2018-Apr-23 23:48N 38°42' W 009°11'0 0.0
2018-Apr-23 23:18N 38°42' W 009°11'0 0.0
2018-Apr-23 22:53N 38°42' W 009°11'0 0.0
2018-Apr-23 22:26N 38°42' W 009°11'0 0.0
2018-Apr-23 21:59N 38°42' W 009°11'0 0.0
2018-Apr-23 21:29N 38°42' W 009°11'0 0.0
2018-Apr-23 20:50N 38°42' W 009°11'0 0.0
2018-Apr-23 20:25N 38°42' W 009°11'0 0.0
2018-Apr-23 19:53N 38°42' W 009°11'0 0.0
2018-Apr-23 19:17N 38°42' W 009°11'0 0.0
2018-Apr-23 18:53N 38°42' W 009°11'0 0.0
2018-Apr-23 18:26N 38°42' W 009°11'0 0.0
2018-Apr-23 17:56N 38°42' W 009°11'0 0.0
2018-Apr-23 17:29N 38°42' W 009°11'2 1.9
2018-Apr-23 16:41N 38°42' W 009°09'1 7.1
2018-Apr-23 16:29N 38°42' W 009°10'2 2.6
2018-Apr-23 15:48N 38°42' W 009°13'1 3.3
2018-Apr-23 15:28N 38°42' W 009°11'2 3.5
2018-Apr-23 14:50N 38°42' W 009°09'1 3.4
2018-Apr-23 14:30N 38°42' W 009°10'2 4.1
2018-Apr-23 13:59N 38°42' W 009°13'1 1.6
2018-Apr-23 13:30N 38°42' W 009°12'2 4.0
2018-Apr-23 12:53N 38°42' W 009°09'2 3.3
2018-Apr-23 12:22N 38°42' W 009°11'2 3.6
2018-Apr-23 11:56N 38°42' W 009°13'2 3.3
2018-Apr-23 11:23N 38°42' W 009°11'2 2.8
2018-Apr-23 10:50N 38°42' W 009°09'1 3.8
2018-Apr-23 10:29N 38°42' W 009°10'2 4.0
2018-Apr-23 09:58N 38°42' W 009°13'0 0.0
2018-Apr-23 09:30N 38°42' W 009°13'0 0.0
2018-Apr-23 09:00N 38°42' W 009°13'1 2.2
2018-Apr-23 08:29N 38°42' W 009°11'1 1.3
2018-Apr-23 08:00N 38°42' W 009°11'0 0.0
2018-Apr-23 07:27N 38°42' W 009°11'0 0.0
2018-Apr-23 06:51N 38°42' W 009°11'0 0.0
2018-Apr-23 06:27N 38°42' W 009°11'0 0.0
2018-Apr-23 05:45N 38°42' W 009°11'0 0.0
2018-Apr-23 05:27N 38°42' W 009°11'0 0.0
2018-Apr-23 04:51N 38°42' W 009°11'0 0.0
2018-Apr-23 04:21N 38°42' W 009°11'0 0.0
2018-Apr-23 03:59N 38°42' W 009°11'0 0.0
2018-Apr-23 03:26N 38°42' W 009°11'0 0.0
2018-Apr-23 02:56N 38°42' W 009°11'0 0.0
2018-Apr-23 02:20N 38°42' W 009°11'0 0.0
2018-Apr-23 01:44N 38°42' W 009°11'0 0.0
2018-Apr-23 01:26N 38°42' W 009°11'0 0.0
2018-Apr-23 00:53N 38°42' W 009°11'0 0.0
2018-Apr-23 00:20N 38°42' W 009°11'0 0.0
2018-Apr-22 23:56N 38°42' W 009°11'0 0.0
2018-Apr-22 23:26N 38°42' W 009°11'0 0.0
2018-Apr-22 22:56N 38°42' W 009°11'0 0.0
2018-Apr-22 22:26N 38°42' W 009°11'0 0.0
2018-Apr-22 21:56N 38°42' W 009°11'0 0.0
2018-Apr-22 21:26N 38°42' W 009°11'0 0.0
2018-Apr-22 20:49N 38°42' W 009°11'0 0.0
2018-Apr-22 20:28N 38°42' W 009°11'0 0.0
2018-Apr-22 19:46N 38°42' W 009°11'0 0.0
2018-Apr-22 19:28N 38°42' W 009°11'0 0.0
2018-Apr-22 18:55N 38°42' W 009°11'0 0.0
2018-Apr-22 18:27N 38°42' W 009°11'0 0.0
2018-Apr-22 17:59N 38°42' W 009°11'2 3.2
2018-Apr-22 17:30N 38°42' W 009°09'3 6.0
2018-Apr-22 16:57N 38°42' W 009°13'2 3.5
2018-Apr-22 16:31N 38°42' W 009°11'2 3.1
2018-Apr-22 15:57N 38°42' W 009°09'1 2.8
2018-Apr-22 15:29N 38°42' W 009°10'2 3.4
2018-Apr-22 14:55N 38°42' W 009°13'1 3.0
2018-Apr-22 14:30N 38°42' W 009°11'2 3.9
2018-Apr-22 14:00N 38°42' W 009°09'2 3.2
2018-Apr-22 13:29N 38°42' W 009°11'2 3.2
2018-Apr-22 13:00N 38°42' W 009°13'2 3.1
2018-Apr-22 12:25N 38°42' W 009°11'2 2.9
2018-Apr-22 11:53N 38°42' W 009°09'1 3.8
2018-Apr-22 11:30N 38°42' W 009°11'2 2.7
2018-Apr-22 10:48N 38°42' W 009°13'1 1.6
2018-Apr-22 10:22N 38°42' W 009°12'3 4.8
2018-Apr-22 09:50N 38°42' W 009°09'1 4.0
2018-Apr-22 09:30N 38°42' W 009°10'0 0.3
2018-Apr-22 08:56N 38°42' W 009°11'0 0.0
2018-Apr-22 08:26N 38°42' W 009°11'0 0.0
2018-Apr-22 07:53N 38°42' W 009°11'0 0.0
2018-Apr-22 07:14N 38°42' W 009°11'0 0.0
2018-Apr-22 06:59N 38°42' W 009°11'0 0.0
2018-Apr-22 06:29N 38°42' W 009°11'0 0.0
2018-Apr-22 05:53N 38°42' W 009°11'0 0.0
2018-Apr-22 05:20N 38°42' W 009°11'0 0.0
2018-Apr-22 04:59N 38°42' W 009°11'0 0.0
2018-Apr-22 04:14N 38°42' W 009°11'0 0.0
2018-Apr-22 03:56N 38°42' W 009°11'0 0.0
2018-Apr-22 03:20N 38°42' W 009°11'0 0.0
2018-Apr-22 02:50N 38°42' W 009°11'0 0.0
2018-Apr-22 02:29N 38°42' W 009°11'0 0.0
2018-Apr-22 01:59N 38°42' W 009°11'0 0.0
2018-Apr-22 01:23N 38°42' W 009°11'0 0.0
2018-Apr-22 00:56N 38°42' W 009°11'0 0.0
2018-Apr-22 00:23N 38°42' W 009°11'0 0.0
2018-Apr-21 23:59N 38°42' W 009°11'0 0.0
2018-Apr-21 23:28N 38°42' W 009°11'0 0.0
2018-Apr-21 22:46N 38°42' W 009°11'0 0.0
2018-Apr-21 22:28N 38°42' W 009°11'0 0.0
2018-Apr-21 21:58N 38°42' W 009°11'0 0.0
2018-Apr-21 21:22N 38°42' W 009°11'0 0.0
2018-Apr-21 20:58N 38°42' W 009°11'0 0.0
2018-Apr-21 20:28N 38°42' W 009°11'0 0.0
2018-Apr-21 19:58N 38°42' W 009°11'0 0.0
2018-Apr-21 19:25N 38°42' W 009°11'0 0.0
2018-Apr-21 18:59N 38°42' W 009°11'0 0.0
2018-Apr-21 18:23N 38°42' W 009°11'0 0.0
2018-Apr-21 17:59N 38°42' W 009°11'0 0.0
2018-Apr-21 17:23N 38°42' W 009°11'1 2.9
2018-Apr-21 16:53N 38°42' W 009°09'0 0.9
2018-Apr-21 16:30N 38°42' W 009°09'3 5.6
2018-Apr-21 15:59N 38°42' W 009°13'2 3.2
2018-Apr-21 15:26N 38°42' W 009°11'0 0.0
2018-Apr-21 14:46N 38°42' W 009°11'0 0.0
2018-Apr-21 14:28N 38°42' W 009°11'0 0.0
2018-Apr-21 13:55N 38°42' W 009°11'0 0.0
2018-Apr-21 13:28N 38°42' W 009°11'0 0.0
2018-Apr-21 12:55N 38°42' W 009°11'0 0.0
2018-Apr-21 12:28N 38°42' W 009°11'0 0.0
2018-Apr-21 11:55N 38°42' W 009°11'0 0.0
2018-Apr-21 11:16N 38°42' W 009°11'0 0.0
2018-Apr-21 10:40N 38°42' W 009°11'0 0.0
2018-Apr-21 10:16N 38°42' W 009°11'0 0.0
2018-Apr-21 09:58N 38°42' W 009°11'0 0.0
2018-Apr-21 09:28N 38°42' W 009°11'0 0.0
2018-Apr-21 08:58N 38°42' W 009°11'0 0.0
2018-Apr-21 08:01N 38°42' W 009°11'0 0.0
2018-Apr-21 07:55N 38°42' W 009°11'0 0.0
2018-Apr-21 07:07N 38°42' W 009°11'0 0.0
2018-Apr-21 06:58N 38°42' W 009°11'0 0.0
2018-Apr-21 06:16N 38°42' W 009°11'0 0.0
2018-Apr-21 05:55N 38°42' W 009°11'0 0.0
2018-Apr-21 05:16N 38°42' W 009°11'0 0.0
2018-Apr-21 04:58N 38°42' W 009°11'0 0.0
2018-Apr-21 04:07N 38°42' W 009°11'0 0.0
2018-Apr-21 03:37N 38°42' W 009°11'0 0.0
2018-Apr-21 03:07N 38°42' W 009°11'0 0.0
2018-Apr-21 02:43N 38°42' W 009°11'0 0.0
2018-Apr-21 02:25N 38°42' W 009°11'0 0.0
2018-Apr-21 01:58N 38°42' W 009°11'0 0.0
2018-Apr-21 01:19N 38°42' W 009°11'0 0.0
2018-Apr-21 00:55N 38°42' W 009°11'0 0.0
2018-Apr-21 00:25N 38°42' W 009°11'0 0.0
2018-Apr-20 23:58N 38°42' W 009°11'0 0.0
2018-Apr-20 23:28N 38°42' W 009°11'0 0.0
2018-Apr-20 22:55N 38°42' W 009°11'0 0.0
2018-Apr-20 22:28N 38°42' W 009°11'0 0.0
2018-Apr-20 21:43N 38°42' W 009°11'0 0.0
2018-Apr-20 21:25N 38°42' W 009°11'0 0.0
2018-Apr-20 20:25N 38°42' W 009°11'0 0.0
2018-Apr-20 19:59N 38°42' W 009°11'0 0.0
2018-Apr-20 19:29N 38°42' W 009°11'0 0.0
2018-Apr-20 18:59N 38°42' W 009°11'0 0.0
2018-Apr-20 18:14N 38°42' W 009°11'0 0.0
2018-Apr-20 17:47N 38°42' W 009°11'0 0.0
2018-Apr-20 17:29N 38°42' W 009°11'2 3.2
2018-Apr-20 16:57N 38°42' W 009°13'1 2.3
2018-Apr-20 16:28N 38°42' W 009°11'2 4.3
2018-Apr-20 16:00N 38°42' W 009°09'1 1.3
2018-Apr-20 15:27N 38°42' W 009°10'3 5.1
2018-Apr-20 14:56N 38°42' W 009°13'0 1.0
2018-Apr-20 14:28N 38°42' W 009°12'3 3.4
2018-Apr-20 13:35N 38°42' W 009°08'1 6.9
2018-Apr-20 13:25N 38°42' W 009°10'2 4.4
2018-Apr-20 12:54N 38°41' W 009°13'1 2.6
2018-Apr-20 12:25N 38°42' W 009°11'2 3.5
2018-Apr-20 11:51N 38°42' W 009°09'1 2.3
2018-Apr-20 11:29N 38°42' W 009°10'2 3.7
2018-Apr-20 10:50N 38°42' W 009°13'1 2.9
2018-Apr-20 10:30N 38°42' W 009°12'2 4.0
2018-Apr-20 09:58N 38°42' W 009°09'1 2.5
2018-Apr-20 09:27N 38°42' W 009°11'0 0.0
2018-Apr-20 08:24N 38°42' W 009°11'0 0.0
2018-Apr-20 07:55N 38°42' W 009°11'0 0.0
2018-Apr-20 07:27N 38°42' W 009°11'0 0.0
2018-Apr-20 07:00N 38°42' W 009°11'0 0.0
2018-Apr-20 06:18N 38°42' W 009°11'0 0.0
2018-Apr-20 05:51N 38°42' W 009°11'0 0.0
2018-Apr-20 05:18N 38°42' W 009°11'0 0.0
2018-Apr-20 04:57N 38°42' W 009°11'0 0.0
2018-Apr-20 04:27N 38°42' W 009°11'0 0.0
2018-Apr-20 03:57N 38°42' W 009°11'0 0.0
2018-Apr-20 03:21N 38°42' W 009°11'0 0.0
2018-Apr-20 03:00N 38°42' W 009°11'0 0.0
2018-Apr-20 02:30N 38°42' W 009°11'0 0.0
2018-Apr-20 02:00N 38°42' W 009°11'0 0.0
2018-Apr-20 01:27N 38°42' W 009°11'0 0.0
2018-Apr-20 00:57N 38°42' W 009°11'0 0.0
2018-Apr-20 00:30N 38°42' W 009°11'0 0.0
2018-Apr-19 23:57N 38°42' W 009°11'0 0.0
2018-Apr-19 23:27N 38°42' W 009°11'0 0.0
2018-Apr-19 23:00N 38°42' W 009°11'0 0.0
2018-Apr-19 22:30N 38°42' W 009°11'0 0.0
2018-Apr-19 21:39N 38°42' W 009°11'0 0.0
2018-Apr-19 20:50N 38°42' W 009°11'0 0.0
2018-Apr-19 20:23N 38°42' W 009°11'0 0.0
2018-Apr-19 19:43N 38°42' W 009°11'0 0.0
2018-Apr-19 19:22N 38°42' W 009°11'0 0.0
2018-Apr-19 18:37N 38°42' W 009°11'0 0.0
2018-Apr-19 18:16N 38°42' W 009°11'0 0.0
2018-Apr-19 17:55N 38°42' W 009°11'0 0.1
2018-Apr-19 17:13N 38°42' W 009°11'1 3.1
2018-Apr-19 16:46N 38°42' W 009°09'0 1.3
2018-Apr-19 16:28N 38°42' W 009°09'3 5.0
2018-Apr-19 15:53N 38°42' W 009°13'1 2.1
2018-Apr-19 15:30N 38°42' W 009°12'2 3.5
2018-Apr-19 14:49N 38°42' W 009°09'1 3.7
2018-Apr-19 14:30N 38°42' W 009°10'2 4.4
2018-Apr-19 14:00N 38°42' W 009°13'1 1.3
2018-Apr-19 13:27N 38°42' W 009°12'2 5.3
2018-Apr-19 12:59N 38°42' W 009°09'1 2.3
2018-Apr-19 12:24N 38°42' W 009°10'2 2.9
2018-Apr-19 11:47N 38°42' W 009°13'1 3.3
2018-Apr-19 11:28N 38°42' W 009°11'2 4.3
2018-Apr-19 11:00N 38°42' W 009°09'1 2.4
2018-Apr-19 10:30N 38°42' W 009°10'2 3.8
2018-Apr-19 09:58N 38°42' W 009°13'0 0.2
2018-Apr-19 09:26N 38°41' W 009°13'1 2.8
2018-Apr-19 09:00N 38°41' W 009°12'1 1.8
2018-Apr-19 08:29N 38°41' W 009°11'1 0.6
2018-Apr-19 07:38N 38°42' W 009°11'0 0.0
2018-Apr-19 07:26N 38°42' W 009°11'0 0.0
2018-Apr-19 06:56N 38°42' W 009°11'0 0.0
2018-Apr-19 06:23N 38°42' W 009°11'0 0.0
2018-Apr-19 05:53N 38°42' W 009°11'0 0.0
2018-Apr-19 05:23N 38°42' W 009°11'0 0.0
2018-Apr-19 04:59N 38°42' W 009°11'0 0.0
2018-Apr-19 04:29N 38°42' W 009°11'0 0.0
2018-Apr-19 03:53N 38°42' W 009°11'0 0.0
2018-Apr-19 03:05N 38°42' W 009°11'0 0.0
2018-Apr-19 02:56N 38°42' W 009°11'0 0.0
2018-Apr-19 02:29N 38°42' W 009°11'0 0.0
2018-Apr-19 01:59N 38°42' W 009°11'0 0.0
2018-Apr-19 01:26N 38°42' W 009°11'0 0.0
2018-Apr-19 00:59N 38°42' W 009°11'0 0.0
2018-Apr-19 00:25N 38°42' W 009°11'0 0.0
2018-Apr-18 23:58N 38°42' W 009°11'0 0.0
2018-Apr-18 23:28N 38°42' W 009°11'0 0.0
2018-Apr-18 21:55N 38°42' W 009°11'0 0.0
2018-Apr-18 21:10N 38°42' W 009°11'0 0.0
2018-Apr-18 20:43N 38°42' W 009°11'0 0.0
2018-Apr-18 20:28N 38°42' W 009°11'0 0.0
2018-Apr-18 19:49N 38°42' W 009°11'0 0.0
2018-Apr-18 19:28N 38°42' W 009°11'0 0.0
2018-Apr-18 18:58N 38°42' W 009°11'0 0.0
2018-Apr-18 18:28N 38°42' W 009°11'2 2.4
2018-Apr-18 17:42N 38°42' W 009°08'1 5.7
2018-Apr-18 17:27N 38°42' W 009°10'2 4.8
2018-Apr-18 16:59N 38°42' W 009°13'2 3.7
2018-Apr-18 16:27N 38°42' W 009°10'1 2.0
2018-Apr-18 15:50N 38°42' W 009°09'1 1.9
2018-Apr-18 15:30N 38°42' W 009°10'2 3.4
2018-Apr-18 14:49N 38°42' W 009°13'1 3.6
2018-Apr-18 14:24N 38°42' W 009°11'2 2.9
2018-Apr-18 13:52N 38°42' W 009°09'0 0.6
2018-Apr-18 13:30N 38°42' W 009°09'3 5.2
2018-Apr-18 12:55N 38°42' W 009°13'1 1.9
2018-Apr-18 12:28N 38°42' W 009°12'2 4.3
2018-Apr-18 11:55N 38°42' W 009°09'1 3.2
2018-Apr-18 11:28N 38°42' W 009°11'2 3.6
2018-Apr-18 10:59N 38°42' W 009°13'2 3.7
2018-Apr-18 10:30N 38°42' W 009°11'0 0.0
2018-Apr-18 10:00N 38°42' W 009°11'0 0.0
2018-Apr-18 09:27N 38°42' W 009°11'0 0.0
2018-Apr-18 08:57N 38°42' W 009°11'0 0.0
2018-Apr-18 08:30N 38°42' W 009°11'0 0.0
2018-Apr-18 07:51N 38°42' W 009°11'0 0.0
2018-Apr-18 07:21N 38°42' W 009°11'0 0.0
2018-Apr-18 07:00N 38°42' W 009°11'0 0.0
2018-Apr-18 06:27N 38°42' W 009°11'0 0.0
2018-Apr-18 05:57N 38°42' W 009°11'0 0.0
2018-Apr-18 05:30N 38°42' W 009°11'0 0.0
2018-Apr-18 04:45N 38°42' W 009°11'0 0.0
2018-Apr-18 04:27N 38°42' W 009°11'0 0.0
2018-Apr-18 03:57N 38°42' W 009°11'0 0.0
2018-Apr-18 03:10N 38°42' W 009°11'0 0.0
2018-Apr-18 02:58N 38°42' W 009°11'0 0.0
2018-Apr-18 02:23N 38°42' W 009°11'0 0.0
2018-Apr-18 02:00N 38°42' W 009°11'0 0.0
2018-Apr-18 01:23N 38°42' W 009°11'0 0.0
2018-Apr-18 00:56N 38°42' W 009°11'0 0.0
2018-Apr-18 00:23N 38°42' W 009°11'0 0.0
2018-Apr-17 23:56N 38°42' W 009°11'0 0.0
2018-Apr-17 23:29N 38°42' W 009°11'0 0.0
2018-Apr-17 22:53N 38°42' W 009°11'0 0.0
2018-Apr-17 21:44N 38°42' W 009°11'0 0.0
2018-Apr-17 21:29N 38°42' W 009°11'0 0.0
2018-Apr-17 20:59N 38°42' W 009°11'0 0.0
2018-Apr-17 20:26N 38°42' W 009°11'0 0.0
2018-Apr-17 19:59N 38°42' W 009°11'0 0.0
2018-Apr-17 19:02N 38°42' W 009°11'0 0.0
2018-Apr-17 18:53N 38°42' W 009°11'0 0.0
2018-Apr-17 17:58N 38°42' W 009°11'2 3.9
2018-Apr-17 17:29N 38°41' W 009°13'3 6.2
2018-Apr-17 16:57N 38°42' W 009°09'1 1.3
2018-Apr-17 16:29N 38°42' W 009°10'3 5.1
2018-Apr-17 15:58N 38°42' W 009°13'1 2.0
2018-Apr-17 15:28N 38°42' W 009°12'2 3.7
2018-Apr-17 14:52N 38°42' W 009°09'1 2.7
2018-Apr-17 14:24N 38°42' W 009°10'2 4.2
2018-Apr-17 13:55N 38°42' W 009°13'1 1.9
2018-Apr-17 13:30N 38°42' W 009°12'2 4.6
2018-Apr-17 12:58N 38°42' W 009°09'0 1.0
2018-Apr-17 12:30N 38°42' W 009°09'3 5.0
2018-Apr-17 11:56N 38°42' W 009°13'1 1.9
2018-Apr-17 11:29N 38°42' W 009°12'2 4.4
2018-Apr-17 10:57N 38°42' W 009°09'2 3.6
2018-Apr-17 10:29N 38°42' W 009°11'2 3.3
2018-Apr-17 10:00N 38°42' W 009°13'2 3.3
2018-Apr-17 09:28N 38°42' W 009°11'0 0.5
2018-Apr-17 08:58N 38°42' W 009°10'0 0.8
2018-Apr-17 08:22N 38°42' W 009°10'1 1.8
2018-Apr-17 07:59N 38°42' W 009°11'0 0.1
2018-Apr-17 07:17N 38°42' W 009°11'0 0.0
2018-Apr-17 06:56N 38°42' W 009°11'0 0.0
2018-Apr-17 05:32N 38°42' W 009°11'0 0.0
2018-Apr-17 05:26N 38°42' W 009°11'0 0.0
2018-Apr-17 02:56N 38°42' W 009°11'0 0.0
2018-Apr-17 02:20N 38°42' W 009°11'0 0.0
2018-Apr-17 01:50N 38°42' W 009°11'0 0.0
2018-Apr-17 01:20N 38°42' W 009°11'0 0.0
2018-Apr-17 00:56N 38°42' W 009°11'0 0.0
2018-Apr-17 00:26N 38°42' W 009°11'0 0.0
2018-Apr-16 23:32N 38°42' W 009°11'0 0.0
2018-Apr-16 23:26N 38°42' W 009°11'0 0.0
2018-Apr-16 22:56N 38°42' W 009°11'0 0.0
2018-Apr-16 22:26N 38°42' W 009°11'0 0.0
2018-Apr-16 21:53N 38°42' W 009°11'0 0.0
2018-Apr-16 21:14N 38°42' W 009°11'0 0.0
2018-Apr-16 20:59N 38°42' W 009°11'0 0.0
2018-Apr-16 20:26N 38°42' W 009°11'0 0.0
2018-Apr-16 19:53N 38°42' W 009°11'0 0.0
2018-Apr-16 19:29N 38°42' W 009°11'0 0.0
2018-Apr-16 18:59N 38°42' W 009°11'0 0.0
2018-Apr-16 18:12N 38°42' W 009°11'2 5.2
2018-Apr-16 17:49N 38°42' W 009°08'2 5.2
2018-Apr-16 17:21N 38°42' W 009°11'0 0.5
2018-Apr-16 16:26N 38°42' W 009°12'0 0.4
2018-Apr-16 15:16N 38°42' W 009°11'1 4.5
2018-Apr-16 14:58N 38°42' W 009°13'1 1.7
2018-Apr-16 14:30N 38°42' W 009°12'2 4.2
2018-Apr-16 13:56N 38°42' W 009°09'0 0.5
2018-Apr-16 13:28N 38°42' W 009°09'3 7.1
2018-Apr-16 12:59N 38°41' W 009°13'1 1.8
2018-Apr-16 12:29N 38°42' W 009°12'2 4.0
2018-Apr-16 11:54N 38°42' W 009°09'1 3.1
2018-Apr-16 11:27N 38°42' W 009°11'2 3.0
2018-Apr-16 10:50N 38°42' W 009°13'1 1.6
2018-Apr-16 10:29N 38°42' W 009°12'3 4.4
2018-Apr-16 09:53N 38°42' W 009°09'2 4.8
2018-Apr-16 09:30N 38°42' W 009°11'1 2.0
2018-Apr-16 08:47N 38°41' W 009°13'2 5.0
2018-Apr-16 08:26N 38°42' W 009°11'0 0.0
2018-Apr-16 07:56N 38°42' W 009°11'0 0.0
2018-Apr-16 07:29N 38°42' W 009°11'0 0.0
2018-Apr-16 06:53N 38°42' W 009°11'0 0.0
2018-Apr-16 05:10N 38°42' W 009°11'0 0.0
2018-Apr-16 04:52N 38°42' W 009°11'0 0.0
2018-Apr-16 03:49N 38°42' W 009°11'0 0.0
2018-Apr-16 03:28N 38°42' W 009°11'0 0.0
2018-Apr-16 02:43N 38°42' W 009°11'0 0.0
2018-Apr-16 01:52N 38°42' W 009°11'0 0.0
2018-Apr-16 01:28N 38°42' W 009°11'0 0.0
2018-Apr-16 00:58N 38°42' W 009°11'0 0.0
2018-Apr-16 00:28N 38°42' W 009°11'0 0.0
2018-Apr-15 22:13N 38°42' W 009°11'0 0.0
2018-Apr-15 21:43N 38°42' W 009°11'0 0.0
2018-Apr-15 20:38N 38°42' W 009°11'0 0.0
2018-Apr-15 20:17N 38°42' W 009°11'0 0.0
2018-Apr-15 19:59N 38°42' W 009°11'0 0.0
2018-Apr-15 19:29N 38°42' W 009°11'0 0.0
2018-Apr-15 18:56N 38°42' W 009°11'0 0.0
2018-Apr-15 18:26N 38°42' W 009°11'0 0.0
2018-Apr-15 17:56N 38°42' W 009°11'0 0.0
2018-Apr-15 17:17N 38°42' W 009°11'0 1.5
2018-Apr-15 17:00N 38°42' W 009°10'1 1.3
2018-Apr-15 16:28N 38°42' W 009°11'1 2.9
2018-Apr-15 15:59N 38°42' W 009°13'1 2.4
2018-Apr-15 15:31N 38°42' W 009°11'1 1.3
2018-Apr-15 14:29N 38°42' W 009°10'2 3.4
2018-Apr-15 13:45N 38°42' W 009°13'1 3.6
2018-Apr-15 13:30N 38°42' W 009°12'2 4.3
2018-Apr-15 12:58N 38°42' W 009°09'0 0.7
2018-Apr-15 12:28N 38°42' W 009°08'4 6.5
2018-Apr-15 11:54N 38°42' W 009°13'0 0.0
2018-Apr-15 11:30N 38°42' W 009°13'0 0.0
2018-Apr-15 11:00N 38°42' W 009°13'0 0.0
2018-Apr-15 10:30N 38°42' W 009°13'0 0.0
2018-Apr-15 10:00N 38°42' W 009°13'2 3.5
2018-Apr-15 09:30N 38°42' W 009°11'0 0.0
2018-Apr-15 08:57N 38°42' W 009°11'0 0.0
2018-Apr-15 08:18N 38°42' W 009°11'0 0.0
2018-Apr-15 07:59N 38°42' W 009°11'0 0.0
2018-Apr-15 07:29N 38°42' W 009°11'0 0.0
2018-Apr-15 06:53N 38°42' W 009°11'  

Dump ship's entire track history